Terminal Aerodrome Forecast
Issued by NWS Boston, MA

Home | Current Version | Previous Version | Text Only | Print | Product List | Glossary On
Versions: 1 2 3 4 5 6 7 8 9 10 11 12 13 14 15 16 17 18 19 20 21 22 23 24 25 26 27 28 29 30 31 32 33 34 35 36 37 38 39 40 41 42 43 44 45 46
303
FTUS41 KBOX 242037 AAC
TAFBOS
TAF AMD
KBOS 242037Z 2421/2524 05016G26KT 1SM RA BR BKN007 OVC016
     FM242200 04013G25KT 3SM -SHRA BR OVC008
     FM250100 03011G22KT P6SM VCSH OVC008
     FM251100 02007KT P6SM OVC010
     FM252300 03005KT P6SM BKN035=

USA.gov is the U.S. government's official web portal to all federal, state and local government web resources and services.